createdAt,value
2017-09-27T00:00:09.216Z,17
2017-09-27T00:00:49.634Z,16.96
2017-09-27T00:01:30.226Z,16.91
2017-09-27T00:02:10.738Z,16.89
2017-09-27T00:02:51.260Z,16.94
2017-09-27T00:03:31.799Z,17.06
2017-09-27T00:04:12.437Z,17
2017-09-27T00:04:52.989Z,16.97
2017-09-27T00:05:33.539Z,17
2017-09-27T00:06:14.077Z,17.03
2017-09-27T00:06:54.655Z,16.97
2017-09-27T00:07:35.191Z,16.97
2017-09-27T00:08:15.701Z,16.96
2017-09-27T00:08:56.253Z,16.94
2017-09-27T00:09:36.862Z,16.94
2017-09-27T00:10:17.345Z,17.04
2017-09-27T00:10:57.889Z,16.94
2017-09-27T00:11:38.430Z,16.98
2017-09-27T00:12:18.947Z,17.01
2017-09-27T00:12:59.514Z,17.04
2017-09-27T00:13:40.068Z,17.04
2017-09-27T00:14:20.539Z,17.04
2017-09-27T00:15:01.095Z,16.97
2017-09-27T00:15:41.696Z,17
2017-09-27T00:16:22.168Z,17.03
2017-09-27T00:17:02.698Z,16.98
2017-09-27T00:17:43.256Z,16.98
2017-09-27T00:18:23.808Z,16.98
2017-09-27T00:19:04.352Z,16.98
2017-09-27T00:19:44.852Z,17.04
2017-09-27T00:20:25.413Z,17.03
2017-09-27T00:21:05.930Z,16.98
2017-09-27T00:21:46.480Z,16.94
2017-09-27T00:22:27.052Z,16.96
2017-09-27T00:23:07.604Z,16.91
2017-09-27T00:23:48.143Z,16.88
2017-09-27T00:24:28.667Z,16.82
2017-09-27T00:25:09.265Z,16.85
2017-09-27T00:25:49.840Z,16.94
2017-09-27T00:26:30.324Z,16.88
2017-09-27T00:27:10.864Z,16.91
2017-09-27T00:27:51.342Z,16.89
2017-09-27T00:28:31.913Z,16.85
2017-09-27T00:29:12.489Z,16.82
2017-09-27T00:29:53.012Z,16.82
2017-09-27T00:30:33.555Z,16.83
2017-09-27T00:31:14.057Z,16.96
2017-09-27T00:31:54.643Z,16.85
2017-09-27T00:32:35.222Z,16.82
2017-09-27T00:33:15.760Z,16.85
2017-09-27T00:33:56.266Z,16.78
2017-09-27T00:34:36.782Z,16.71
2017-09-27T00:35:17.384Z,16.64
2017-09-27T00:35:57.868Z,16.7
2017-09-27T00:36:38.440Z,16.75
2017-09-27T00:37:18.974Z,16.75
2017-09-27T00:37:59.479Z,16.73
2017-09-27T00:38:40.022Z,16.79
2017-09-27T00:39:20.738Z,16.81
2017-09-27T00:40:01.276Z,16.76
2017-09-27T00:40:41.792Z,16.66
2017-09-27T00:41:22.315Z,16.76
2017-09-27T00:42:02.849Z,16.73
2017-09-27T00:42:43.404Z,16.68
2017-09-27T00:43:23.975Z,16.68
2017-09-27T00:44:04.509Z,16.63
2017-09-27T00:44:45.023Z,16.67
2017-09-27T00:45:25.541Z,16.68
2017-09-27T00:46:06.085Z,16.64
2017-09-27T00:46:46.611Z,16.7
2017-09-27T00:47:27.147Z,16.58
2017-09-27T00:48:07.730Z,16.49
2017-09-27T00:48:48.294Z,16.61
2017-09-27T00:49:28.780Z,16.6
2017-09-27T00:50:09.343Z,16.5
2017-09-27T00:50:49.879Z,16.67
2017-09-27T00:51:30.378Z,16.71
2017-09-27T00:52:10.930Z,16.71
2017-09-27T00:52:51.422Z,16.71
2017-09-27T00:53:31.958Z,16.68
2017-09-27T00:54:12.536Z,16.6
2017-09-27T00:54:53.044Z,16.66
2017-09-27T00:55:33.622Z,16.68
2017-09-27T00:56:14.177Z,16.67
2017-09-27T00:56:54.745Z,16.76
2017-09-27T00:57:35.266Z,16.7
2017-09-27T00:58:15.764Z,16.68
2017-09-27T00:58:56.297Z,16.76
2017-09-27T00:59:36.834Z,16.75
2017-09-27T01:00:17.376Z,16.81
2017-09-27T01:00:57.949Z,16.66
2017-09-27T01:01:38.522Z,16.7
2017-09-27T01:02:19.085Z,16.63
2017-09-27T01:02:59.620Z,16.64
2017-09-27T01:03:40.157Z,16.5
2017-09-27T01:04:20.645Z,16.63
2017-09-27T01:05:01.169Z,16.68
2017-09-27T01:05:41.762Z,16.64
2017-09-27T01:06:22.236Z,16.57
2017-09-27T01:07:02.837Z,16.56
2017-09-27T01:07:43.380Z,16.52
2017-09-27T01:08:23.956Z,16.61
2017-09-27T01:09:04.468Z,16.52
2017-09-27T01:09:45.039Z,16.63
2017-09-27T01:10:25.571Z,16.6
2017-09-27T01:11:06.143Z,16.66
2017-09-27T01:11:46.692Z,16.6
2017-09-27T01:12:27.167Z,16.52
2017-09-27T01:13:07.679Z,16.57
2017-09-27T01:13:48.254Z,16.63
2017-09-27T01:14:28.796Z,16.57
2017-09-27T01:15:09.308Z,16.57
2017-09-27T01:15:49.876Z,16.5
2017-09-27T01:16:30.411Z,16.61
2017-09-27T01:17:10.948Z,16.52
2017-09-27T01:17:51.527Z,16.56
2017-09-27T01:18:32.016Z,16.61
2017-09-27T01:19:12.533Z,16.63
2017-09-27T01:19:53.078Z,16.56
2017-09-27T01:20:33.656Z,16.53
2017-09-27T01:21:14.158Z,16.57
2017-09-27T01:21:54.731Z,16.53
2017-09-27T01:22:35.273Z,16.52
2017-09-27T01:23:15.813Z,16.46
2017-09-27T01:23:56.348Z,16.53
2017-09-27T01:24:36.921Z,16.46
2017-09-27T01:25:17.456Z,16.53
2017-09-27T01:25:57.988Z,16.52
2017-09-27T01:26:38.574Z,16.49
2017-09-27T01:27:19.145Z,16.46
2017-09-27T01:27:59.686Z,16.49
2017-09-27T01:28:40.219Z,16.49
2017-09-27T01:29:20.689Z,16.49
2017-09-27T01:30:01.210Z,16.48
2017-09-27T01:30:41.786Z,16.5
2017-09-27T01:31:22.365Z,16.43
2017-09-27T01:32:02.879Z,16.53
2017-09-27T01:32:43.398Z,16.46
2017-09-27T01:33:23.971Z,16.48
2017-09-27T01:34:04.503Z,16.56
2017-09-27T01:34:45.067Z,16.52
2017-09-27T01:35:25.631Z,16.5
2017-09-27T01:36:06.185Z,16.57
2017-09-27T01:36:46.731Z,16.53
2017-09-27T01:37:27.294Z,16.57
2017-09-27T01:38:07.837Z,16.57
2017-09-27T01:38:48.369Z,16.58
2017-09-27T01:39:28.963Z,16.43
2017-09-27T01:40:09.490Z,16.5
2017-09-27T01:40:50.010Z,16.49
2017-09-27T01:41:30.583Z,16.43
2017-09-27T01:42:11.139Z,16.41
2017-09-27T01:42:51.658Z,16.41
2017-09-27T01:43:32.172Z,16.56
2017-09-27T01:44:12.689Z,16.57
2017-09-27T01:44:53.216Z,16.6
2017-09-27T01:45:33.767Z,16.58
2017-09-27T01:46:14.298Z,16.6
2017-09-27T01:46:54.810Z,16.57
2017-09-27T01:47:35.339Z,16.48
2017-09-27T01:48:15.918Z,16.57
2017-09-27T01:48:56.462Z,16.63
2017-09-27T01:49:36.989Z,16.52
2017-09-27T01:50:17.508Z,16.45
2017-09-27T01:50:58.071Z,16.46
2017-09-27T01:51:38.574Z,16.42
2017-09-27T01:52:19.097Z,16.45
2017-09-27T01:52:59.642Z,16.41
2017-09-27T01:53:40.149Z,16.45
2017-09-27T01:54:20.697Z,16.42
2017-09-27T01:55:01.206Z,16.46
2017-09-27T01:55:41.715Z,16.48
2017-09-27T01:56:22.231Z,16.46
2017-09-27T01:57:02.768Z,16.53
2017-09-27T01:57:43.291Z,16.57
2017-09-27T01:58:23.838Z,16.57
2017-09-27T01:59:04.401Z,16.6
2017-09-27T01:59:44.957Z,16.6
2017-09-27T02:00:25.488Z,16.57
2017-09-27T02:01:05.990Z,16.58
2017-09-27T02:01:46.504Z,16.52
2017-09-27T02:02:27.095Z,16.63
2017-09-27T02:03:07.606Z,16.56
2017-09-27T02:03:48.158Z,16.5
2017-09-27T02:04:28.703Z,16.56
2017-09-27T02:05:09.159Z,16.61
2017-09-27T02:05:49.707Z,16.57
2017-09-27T02:06:30.276Z,16.67
2017-09-27T02:07:10.810Z,16.61
2017-09-27T02:07:51.332Z,16.63
2017-09-27T02:08:31.877Z,16.68
2017-09-27T02:09:12.445Z,16.58
2017-09-27T02:09:52.973Z,16.52
2017-09-27T02:10:33.445Z,16.49
2017-09-27T02:11:14.007Z,16.48
2017-09-27T02:11:54.539Z,16.5
2017-09-27T02:12:35.023Z,16.52
2017-09-27T02:13:15.580Z,16.53
2017-09-27T02:13:56.153Z,16.41
2017-09-27T02:14:36.653Z,16.35
2017-09-27T02:15:17.161Z,16.46
2017-09-27T02:15:57.725Z,16.43
2017-09-27T02:16:38.242Z,16.43
2017-09-27T02:17:18.817Z,16.49
2017-09-27T02:17:59.359Z,16.43
2017-09-27T02:18:39.884Z,16.5
2017-09-27T02:19:20.418Z,16.52
2017-09-27T02:20:00.915Z,16.56
2017-09-27T02:20:41.478Z,16.48
2017-09-27T02:21:22.043Z,16.43
2017-09-27T02:22:02.534Z,16.56
2017-09-27T02:22:43.085Z,16.53
2017-09-27T02:23:23.627Z,16.49
2017-09-27T02:24:04.160Z,16.49
2017-09-27T02:24:44.712Z,16.49
2017-09-27T02:25:25.268Z,16.53
2017-09-27T02:26:05.747Z,16.6
2017-09-27T02:26:46.314Z,16.57
2017-09-27T02:27:26.861Z,16.57
2017-09-27T02:28:07.448Z,16.48
2017-09-27T02:28:47.964Z,16.5
2017-09-27T02:29:28.483Z,16.49
2017-09-27T02:30:09.031Z,16.45
2017-09-27T02:30:49.571Z,16.35
2017-09-27T02:31:30.091Z,16.43
2017-09-27T02:32:10.561Z,16.42
2017-09-27T02:32:51.079Z,16.41
2017-09-27T02:33:31.670Z,16.41
2017-09-27T02:34:12.127Z,16.38
2017-09-27T02:34:52.669Z,16.42
2017-09-27T02:35:33.201Z,16.48
2017-09-27T02:36:13.730Z,16.52
2017-09-27T02:36:54.246Z,16.46
2017-09-27T02:37:34.808Z,16.5
2017-09-27T02:39:47.656Z,16.48
2017-09-27T02:40:28.110Z,16.42
2017-09-27T02:41:08.665Z,16.43
2017-09-27T02:41:49.176Z,16.35
2017-09-27T02:42:29.763Z,16.39
2017-09-27T02:43:10.279Z,16.39
2017-09-27T02:43:50.789Z,16.42
2017-09-27T02:44:31.356Z,16.34
2017-09-27T02:45:11.885Z,16.46
2017-09-27T02:45:52.430Z,16.42
2017-09-27T02:46:33.001Z,16.46
2017-09-27T02:47:13.538Z,16.5
2017-09-27T02:47:54.045Z,16.41
2017-09-27T02:48:34.611Z,16.52
2017-09-27T02:49:15.156Z,16.45
2017-09-27T02:49:55.703Z,16.48
2017-09-27T02:50:36.274Z,16.5
2017-09-27T02:51:16.838Z,16.64
2017-09-27T02:51:57.354Z,16.56
2017-09-27T02:52:37.896Z,16.56
2017-09-27T02:53:18.430Z,16.53
2017-09-27T02:53:58.976Z,16.41
2017-09-27T02:54:39.504Z,16.39
2017-09-27T02:55:20.086Z,16.45
2017-09-27T02:56:00.584Z,16.39
2017-09-27T02:56:41.145Z,16.43
2017-09-27T02:57:21.724Z,16.43
2017-09-27T02:58:02.207Z,16.5
2017-09-27T02:58:42.753Z,16.53
2017-09-27T02:59:23.333Z,16.57
2017-09-27T03:00:03.884Z,16.41
2017-09-27T03:00:44.454Z,16.42
2017-09-27T03:01:25.025Z,16.5
2017-09-27T03:02:05.494Z,16.6
2017-09-27T03:02:46.064Z,16.56
2017-09-27T03:03:26.513Z,16.52
2017-09-27T03:04:07.062Z,16.56
2017-09-27T03:04:47.593Z,16.57
2017-09-27T03:05:28.129Z,16.6
2017-09-27T03:06:08.687Z,16.53
2017-09-27T03:06:49.225Z,16.63
2017-09-27T03:07:29.807Z,16.56
2017-09-27T03:08:10.346Z,16.66
2017-09-27T03:08:50.877Z,16.64
2017-09-27T03:09:31.394Z,16.56
2017-09-27T03:10:11.951Z,16.58
2017-09-27T03:10:52.501Z,16.6
2017-09-27T03:11:33.068Z,16.56
2017-09-27T03:12:13.651Z,16.63
2017-09-27T03:12:54.143Z,16.56
2017-09-27T03:13:34.733Z,16.53
2017-09-27T03:14:15.525Z,16.53
2017-09-27T03:14:56.055Z,16.58
2017-09-27T03:15:36.565Z,16.58
2017-09-27T03:16:17.146Z,16.7
2017-09-27T03:16:57.718Z,16.56
2017-09-27T03:17:38.257Z,16.56
2017-09-27T03:18:19.251Z,16.49
2017-09-27T03:18:59.932Z,16.56
2017-09-27T03:19:40.381Z,16.57
2017-09-27T03:20:20.907Z,16.61
2017-09-27T03:21:01.435Z,16.56
2017-09-27T03:21:41.980Z,16.43
2017-09-27T03:22:22.594Z,16.41
2017-09-27T03:23:03.181Z,16.49
2017-09-27T03:23:43.688Z,16.46
2017-09-27T03:24:24.234Z,16.56
2017-09-27T03:25:04.796Z,16.57
2017-09-27T03:25:45.346Z,16.6
2017-09-27T03:26:25.869Z,16.57
2017-09-27T03:27:06.442Z,16.63
2017-09-27T03:27:46.990Z,16.53
2017-09-27T03:28:27.489Z,16.48
2017-09-27T03:29:08.067Z,16.73
2017-09-27T03:29:48.666Z,16.66
2017-09-27T03:30:29.202Z,16.73
2017-09-27T03:31:09.751Z,16.64
2017-09-27T03:31:50.271Z,16.63
2017-09-27T03:33:37.863Z,16.68
2017-09-27T03:34:18.296Z,16.58
2017-09-27T03:34:58.818Z,16.6
2017-09-27T03:35:39.368Z,16.6
2017-09-27T03:36:19.882Z,16.6
2017-09-27T03:37:00.434Z,16.57
2017-09-27T03:37:40.987Z,16.6
2017-09-27T03:38:21.560Z,16.56
2017-09-27T03:39:02.092Z,16.53
2017-09-27T03:39:42.637Z,16.58
2017-09-27T03:40:23.174Z,16.61
2017-09-27T03:41:03.903Z,16.58
2017-09-27T03:41:44.416Z,16.53
2017-09-27T03:42:24.994Z,16.6
2017-09-27T03:43:05.488Z,16.58
2017-09-27T03:43:46.033Z,16.53
2017-09-27T03:44:26.547Z,16.5
2017-09-27T03:45:07.080Z,16.57
2017-09-27T03:45:47.634Z,16.56
2017-09-27T03:46:28.161Z,16.53
2017-09-27T03:47:08.664Z,16.6
2017-09-27T03:47:49.220Z,16.42
2017-09-27T03:48:29.793Z,16.42
2017-09-27T03:49:10.308Z,16.5
2017-09-27T03:49:50.873Z,16.52
2017-09-27T03:50:31.363Z,16.57
2017-09-27T03:51:11.902Z,16.58
2017-09-27T03:51:52.443Z,16.67
2017-09-27T03:52:33.007Z,16.66
2017-09-27T03:53:13.516Z,16.64
2017-09-27T03:53:54.072Z,16.73
2017-09-27T03:54:34.617Z,16.73
2017-09-27T03:55:15.123Z,16.7
2017-09-27T03:55:55.669Z,16.75
2017-09-27T03:56:36.159Z,16.79
2017-09-27T03:57:16.717Z,16.75
2017-09-27T03:57:57.256Z,16.73
2017-09-27T03:58:37.806Z,16.73
2017-09-27T03:59:18.289Z,16.71
2017-09-27T03:59:58.806Z,16.82
2017-09-27T04:00:39.319Z,16.83
2017-09-27T04:01:19.911Z,16.85
2017-09-27T04:02:00.409Z,16.83
2017-09-27T04:02:40.970Z,16.75
2017-09-27T04:03:21.508Z,16.83
2017-09-27T04:04:02.046Z,16.79
2017-09-27T04:04:42.622Z,16.83
2017-09-27T04:05:23.154Z,16.82
2017-09-27T04:06:03.722Z,16.82
2017-09-27T04:06:44.245Z,16.76
2017-09-27T04:07:24.782Z,16.76
2017-09-27T04:08:05.273Z,16.76
2017-09-27T04:08:45.886Z,16.73
2017-09-27T04:09:26.415Z,16.76
2017-09-27T04:10:06.922Z,16.85
2017-09-27T04:10:47.464Z,16.79
2017-09-27T04:11:28.024Z,16.71
2017-09-27T04:12:08.569Z,16.82
2017-09-27T04:12:49.089Z,16.78
2017-09-27T04:13:29.691Z,16.71
2017-09-27T04:14:10.182Z,16.71
2017-09-27T04:14:50.716Z,16.86
2017-09-27T04:15:31.232Z,16.76
2017-09-27T04:16:11.746Z,16.83
2017-09-27T04:16:52.307Z,16.82
2017-09-27T04:17:32.871Z,16.68
2017-09-27T04:18:13.402Z,16.73
2017-09-27T04:18:53.926Z,16.76
2017-09-27T04:19:34.471Z,16.7
2017-09-27T04:20:14.971Z,16.64
2017-09-27T04:20:55.514Z,16.68
2017-09-27T04:21:36.045Z,16.71
2017-09-27T04:22:16.602Z,16.68
2017-09-27T04:22:57.134Z,16.71
2017-09-27T04:23:37.709Z,16.63
2017-09-27T04:24:18.216Z,16.61
2017-09-27T04:24:58.759Z,16.73
2017-09-27T04:28:19.087Z,16.68
2017-09-27T04:28:59.528Z,16.6
2017-09-27T04:29:40.076Z,16.6
2017-09-27T04:30:20.615Z,16.57
2017-09-27T04:31:01.130Z,16.57
2017-09-27T04:31:41.661Z,16.53
2017-09-27T04:32:22.160Z,16.56
2017-09-27T04:33:02.681Z,16.57
2017-09-27T04:33:43.216Z,16.61
2017-09-27T04:34:23.777Z,16.58
2017-09-27T04:35:04.380Z,16.67
2017-09-27T04:35:45.644Z,16.53
2017-09-27T04:36:25.404Z,16.67
2017-09-27T04:37:05.893Z,16.48
2017-09-27T04:37:46.472Z,16.57
2017-09-27T04:38:27.044Z,16.68
2017-09-27T04:39:07.575Z,16.66
2017-09-27T04:39:48.083Z,16.68
2017-09-27T04:40:28.655Z,16.75
2017-09-27T04:41:09.201Z,16.75
2017-09-27T04:41:49.728Z,16.78
2017-09-27T04:42:30.268Z,16.76
2017-09-27T04:43:10.734Z,16.7
2017-09-27T04:43:51.316Z,16.68
2017-09-27T04:44:31.832Z,16.76
2017-09-27T04:45:12.443Z,16.71
2017-09-27T04:45:52.916Z,16.71
2017-09-27T04:46:33.438Z,16.75
2017-09-27T04:47:13.992Z,16.7
2017-09-27T04:47:54.501Z,16.66
2017-09-27T04:48:35.093Z,16.67
2017-09-27T04:49:15.620Z,16.63
2017-09-27T04:49:56.166Z,16.73
2017-09-27T04:50:36.672Z,16.75
2017-09-27T04:51:17.234Z,16.75
2017-09-27T04:51:57.762Z,16.7
2017-09-27T04:52:38.385Z,16.73
2017-09-27T04:53:18.892Z,16.7
2017-09-27T04:53:59.591Z,16.7
2017-09-27T04:54:40.064Z,16.78
2017-09-27T04:55:20.636Z,16.81
2017-09-27T04:56:01.212Z,16.85
2017-09-27T04:56:41.733Z,16.83
2017-09-27T04:57:22.280Z,16.68
2017-09-27T04:58:02.845Z,16.68
2017-09-27T04:58:43.434Z,16.7
2017-09-27T04:59:23.967Z,16.56
2017-09-27T05:00:04.496Z,16.61
2017-09-27T05:00:45.032Z,16.6
2017-09-27T05:01:25.635Z,16.56
2017-09-27T05:02:06.135Z,16.6
2017-09-27T05:02:46.699Z,16.58
2017-09-27T05:03:27.262Z,16.56
2017-09-27T05:04:07.801Z,16.56
2017-09-27T05:04:48.336Z,16.56
2017-09-27T05:05:28.852Z,16.49
2017-09-27T05:06:09.360Z,16.58
2017-09-27T05:06:49.931Z,16.66
2017-09-27T05:07:30.456Z,16.71
2017-09-27T05:08:11.016Z,16.7
2017-09-27T05:08:51.607Z,16.66
2017-09-27T05:09:32.177Z,16.6
2017-09-27T05:10:12.690Z,16.53
2017-09-27T05:10:53.294Z,16.48
2017-09-27T05:11:33.827Z,16.53
2017-09-27T05:12:14.403Z,16.45
2017-09-27T05:12:54.955Z,16.58
2017-09-27T05:13:35.492Z,16.6
2017-09-27T05:14:16.056Z,16.6
2017-09-27T05:14:56.614Z,16.63
2017-09-27T05:15:37.160Z,16.7
2017-09-27T05:16:17.682Z,16.68
2017-09-27T05:16:58.228Z,16.73
2017-09-27T05:17:38.759Z,16.81
2017-09-27T05:18:19.280Z,16.7
2017-09-27T05:18:59.826Z,16.86
2017-09-27T05:19:40.364Z,16.78
2017-09-27T05:20:20.940Z,16.81
2017-09-27T05:21:01.437Z,16.82
2017-09-27T05:21:41.989Z,16.75
2017-09-27T05:22:22.533Z,16.6
2017-09-27T05:23:03.052Z,16.58
2017-09-27T05:23:43.596Z,16.7
2017-09-27T05:24:24.119Z,16.79
2017-09-27T05:25:04.655Z,16.75
2017-09-27T05:25:45.207Z,16.83
2017-09-27T05:26:25.765Z,16.88
2017-09-27T05:27:06.336Z,16.89
2017-09-27T05:27:46.864Z,16.91
2017-09-27T05:28:27.418Z,16.85
2017-09-27T05:29:07.987Z,16.98
2017-09-27T05:29:48.519Z,17.11
2017-09-27T05:30:29.044Z,17.19
2017-09-27T05:31:09.625Z,17.25
2017-09-27T05:31:50.165Z,17.23
2017-09-27T05:32:30.707Z,17.23
2017-09-27T05:33:11.201Z,17.36
2017-09-27T05:33:51.742Z,17.4
2017-09-27T05:34:32.275Z,17.46
2017-09-27T05:35:12.803Z,17.44
2017-09-27T05:35:53.410Z,17.43
2017-09-27T05:36:33.943Z,17.41
2017-09-27T05:37:14.455Z,17.34
2017-09-27T05:37:55.050Z,17.33
2017-09-27T05:38:35.557Z,17.3
2017-09-27T05:39:16.117Z,17.18
2017-09-27T05:39:56.668Z,17.33
2017-09-27T05:40:37.140Z,17.23
2017-09-27T05:41:17.708Z,17.38
2017-09-27T05:41:58.430Z,17.19
2017-09-27T05:42:38.979Z,17.3
2017-09-27T05:43:19.474Z,17.22
2017-09-27T05:44:00.052Z,17.21
2017-09-27T05:44:40.583Z,17.23
2017-09-27T05:45:21.189Z,17.23
2017-09-27T05:46:01.684Z,17.23
2017-09-27T05:46:42.240Z,17.22
2017-09-27T05:47:22.823Z,17.22
2017-09-27T05:48:03.292Z,17.22
2017-09-27T05:48:43.897Z,17.22
2017-09-27T05:49:24.419Z,17.22
2017-09-27T05:50:04.962Z,17.37
2017-09-27T05:50:45.507Z,17.38
2017-09-27T05:51:26.070Z,17.4
2017-09-27T05:52:06.608Z,17.38
2017-09-27T05:52:47.128Z,17.37
2017-09-27T05:53:27.628Z,17.37
2017-09-27T05:54:08.149Z,17.44
2017-09-27T05:54:48.699Z,17.44
2017-09-27T05:55:29.266Z,17.44
2017-09-27T05:56:09.802Z,17.37
2017-09-27T05:56:50.257Z,17.4
2017-09-27T05:57:30.786Z,17.46
2017-09-27T05:58:11.370Z,17.46
2017-09-27T05:58:51.918Z,17.43
2017-09-27T05:59:32.390Z,17.51
2017-09-27T06:00:12.968Z,17.58
2017-09-27T06:00:53.450Z,17.43
2017-09-27T06:01:34.030Z,17.52
2017-09-27T06:02:14.626Z,17.49
2017-09-27T06:02:55.172Z,17.55
2017-09-27T06:03:35.737Z,17.62
2017-09-27T06:04:16.215Z,17.66
2017-09-27T06:04:56.832Z,17.74
2017-09-27T06:05:37.393Z,17.81
2017-09-27T06:06:18.514Z,17.84
2017-09-27T06:06:59.104Z,17.84
2017-09-27T06:07:39.642Z,17.87
2017-09-27T06:08:20.183Z,17.74
2017-09-27T06:09:00.702Z,17.87
2017-09-27T06:09:41.343Z,17.89
2017-09-27T06:10:21.798Z,17.87
2017-09-27T06:11:02.298Z,17.97
2017-09-27T06:11:42.876Z,17.99
2017-09-27T06:12:23.460Z,17.92
2017-09-27T06:13:04.032Z,18.05
2017-09-27T06:13:44.517Z,17.96
2017-09-27T06:14:25.082Z,18.02
2017-09-27T06:15:05.621Z,18.08
2017-09-27T06:15:46.248Z,18.14
2017-09-27T06:16:26.733Z,18.08
2017-09-27T06:17:07.285Z,18.03
2017-09-27T06:17:47.861Z,18.07
2017-09-27T06:18:28.378Z,18.11
2017-09-27T06:19:08.909Z,18.17
2017-09-27T06:19:49.403Z,18.2
2017-09-27T06:20:30.202Z,18.2
2017-09-27T06:21:10.766Z,18.17
2017-09-27T06:21:51.241Z,18.23
2017-09-27T06:22:31.795Z,18.25
2017-09-27T06:23:12.317Z,18.26
2017-09-27T06:23:52.877Z,18.32
2017-09-27T06:24:33.404Z,18.33
2017-09-27T06:25:13.909Z,18.41
2017-09-27T06:25:54.457Z,18.41
2017-09-27T06:26:35.114Z,18.52
2017-09-27T06:27:15.520Z,18.52
2017-09-27T06:27:56.678Z,18.57
2017-09-27T06:28:37.307Z,18.58
2017-09-27T06:29:17.808Z,18.63
2017-09-27T06:29:59.543Z,18.62
2017-09-27T06:30:40.166Z,18.69
2017-09-27T06:31:20.638Z,18.55
2017-09-27T06:32:02.063Z,18.65
2017-09-27T06:32:42.614Z,18.63
2017-09-27T06:33:23.102Z,18.63
2017-09-27T06:34:03.694Z,18.67
2017-09-27T06:34:44.247Z,18.63
2017-09-27T06:35:24.762Z,18.65
2017-09-27T06:36:05.355Z,18.62
2017-09-27T06:36:45.849Z,18.62
2017-09-27T06:37:26.419Z,18.7
2017-09-27T06:38:06.986Z,18.75
2017-09-27T06:38:47.480Z,18.88
2017-09-27T06:39:28.612Z,18.88
2017-09-27T06:40:09.239Z,18.87
2017-09-27T06:40:49.728Z,18.85
2017-09-27T06:41:30.260Z,18.92
2017-09-27T06:42:10.771Z,19.02
2017-09-27T06:42:51.339Z,19
2017-09-27T06:43:32.399Z,19.07
2017-09-27T06:44:13.019Z,19.18
2017-09-27T06:44:54.454Z,19.23
2017-09-27T06:45:35.031Z,19.22
2017-09-27T06:46:15.522Z,19.22
2017-09-27T06:46:56.054Z,19.32
2017-09-27T06:47:36.697Z,19.29
2017-09-27T06:48:17.182Z,19.33
2017-09-27T06:48:57.884Z,19.46
2017-09-27T06:49:38.444Z,19.47
2017-09-27T06:50:18.944Z,19.48
2017-09-27T06:50:59.503Z,19.55
2017-09-27T06:51:40.071Z,19.58
2017-09-27T06:52:20.595Z,19.58
2017-09-27T06:53:01.119Z,19.58
2017-09-27T06:53:41.635Z,19.55
2017-09-27T06:54:22.958Z,19.58
2017-09-27T06:55:03.553Z,19.54
2017-09-27T06:55:44.073Z,19.56
2017-09-27T06:56:24.621Z,19.66
2017-09-27T06:57:05.205Z,19.62
2017-09-27T06:57:45.800Z,19.74
2017-09-27T06:58:26.346Z,19.77
2017-09-27T06:59:07.188Z,19.76
2017-09-27T06:59:47.478Z,19.63
2017-09-27T07:00:28.064Z,19.68
2017-09-27T07:01:08.587Z,19.73
2017-09-27T07:01:49.125Z,19.65
2017-09-27T07:02:29.658Z,19.74
2017-09-27T07:03:11.463Z,19.77
2017-09-27T07:03:52.011Z,19.86
2017-09-27T07:06:05.316Z,19.73
2017-09-27T07:06:45.899Z,19.83
2017-09-27T07:07:26.398Z,19.94
2017-09-27T07:08:07.152Z,19.98
2017-09-27T07:08:47.713Z,19.95
2017-09-27T07:09:28.240Z,20.05
2017-09-27T07:10:08.825Z,19.88
2017-09-27T07:10:49.393Z,19.98
2017-09-27T07:11:29.946Z,19.95
2017-09-27T07:12:10.438Z,19.94
2017-09-27T07:12:51.006Z,19.94
2017-09-27T07:13:31.596Z,20.03
2017-09-27T07:14:12.097Z,20.1
2017-09-27T07:14:52.615Z,20.05
2017-09-27T07:15:33.212Z,19.94
2017-09-27T07:16:13.745Z,20.01
2017-09-27T07:16:54.278Z,19.95
2017-09-27T07:17:34.889Z,20.08
2017-09-27T07:18:16.950Z,20.08
2017-09-27T07:18:57.482Z,20.05
2017-09-27T07:19:38.013Z,19.95
2017-09-27T07:20:18.612Z,19.99
2017-09-27T07:20:59.278Z,20.05
2017-09-27T07:21:39.833Z,19.91
2017-09-27T07:22:20.367Z,19.91
2017-09-27T07:23:00.857Z,19.94
2017-09-27T07:23:41.449Z,19.95
2017-09-27T07:24:22.023Z,19.94
2017-09-27T07:25:02.543Z,19.91
2017-09-27T07:25:43.330Z,19.84
2017-09-27T07:26:24.485Z,19.87
2017-09-27T07:27:05.640Z,19.8
2017-09-27T07:27:46.444Z,19.94
2017-09-27T07:28:27.009Z,19.95
2017-09-27T07:29:07.556Z,20.02
2017-09-27T07:29:48.041Z,20.21
2017-09-27T07:30:28.555Z,20.21
2017-09-27T07:31:09.146Z,20.13
2017-09-27T07:31:49.654Z,20.13
2017-09-27T07:32:30.235Z,20.31
2017-09-27T07:33:10.723Z,20.33
2017-09-27T07:33:51.321Z,20.39
2017-09-27T07:34:31.812Z,20.47
2017-09-27T07:35:12.585Z,20.43
2017-09-27T07:35:53.049Z,20.41
2017-09-27T07:36:33.599Z,20.48
2017-09-27T07:37:14.135Z,20.47
2017-09-27T07:37:54.723Z,20.57
2017-09-27T07:38:35.217Z,20.52
2017-09-27T07:39:15.817Z,20.58
2017-09-27T07:39:56.297Z,20.64
2017-09-27T07:40:36.873Z,20.61
2017-09-27T07:41:17.448Z,20.55
2017-09-27T07:41:57.989Z,20.59
2017-09-27T07:42:38.543Z,20.55
2017-09-27T07:43:19.073Z,20.58
2017-09-27T07:43:59.639Z,20.58
2017-09-27T07:44:40.162Z,20.58
2017-09-27T07:45:20.725Z,20.55
2017-09-27T07:46:01.205Z,20.5
2017-09-27T07:46:41.751Z,20.38
2017-09-27T07:47:22.591Z,20.43
2017-09-27T07:48:03.120Z,20.48
2017-09-27T07:48:43.965Z,20.47
2017-09-27T07:49:25.151Z,20.48
2017-09-27T07:50:05.462Z,20.42
2017-09-27T07:50:52.901Z,20.43
2017-09-27T07:51:33.435Z,20.48
2017-09-27T07:52:13.927Z,20.57
2017-09-27T07:52:54.520Z,20.55
2017-09-27T07:53:35.110Z,20.52
2017-09-27T07:54:15.610Z,20.5
2017-09-27T07:54:56.144Z,20.43
2017-09-27T07:55:36.682Z,20.55
2017-09-27T07:56:17.260Z,20.51
2017-09-27T07:56:57.801Z,20.52
2017-09-27T07:57:38.415Z,20.47
2017-09-27T07:58:19.289Z,20.57
2017-09-27T07:58:59.563Z,20.5
2017-09-27T07:59:40.115Z,20.38
2017-09-27T08:00:20.628Z,20.31
2017-09-27T08:01:01.213Z,20.18
2017-09-27T08:01:41.765Z,20.02
2017-09-27T08:02:22.299Z,20.06
2017-09-27T08:03:02.856Z,20.23
2017-09-27T08:03:43.466Z,20.28
2017-09-27T08:04:24.093Z,20.32
2017-09-27T08:05:04.644Z,20.41
2017-09-27T08:05:45.186Z,20.48
2017-09-27T08:06:25.731Z,20.48
2017-09-27T08:07:06.306Z,20.58
2017-09-27T08:07:46.980Z,20.64
2017-09-27T08:08:27.565Z,20.73
2017-09-27T08:09:08.100Z,20.58
2017-09-27T08:09:48.617Z,20.76
2017-09-27T08:10:29.136Z,20.61
2017-09-27T08:11:09.672Z,20.62
2017-09-27T08:11:50.213Z,20.72
2017-09-27T08:12:30.748Z,20.73
2017-09-27T08:13:11.261Z,20.73
2017-09-27T08:13:51.838Z,20.69
2017-09-27T08:14:32.321Z,20.69
2017-09-27T08:15:12.882Z,20.58
2017-09-27T08:15:53.395Z,20.59
2017-09-27T08:16:33.944Z,20.59
2017-09-27T08:17:14.422Z,20.59
2017-09-27T08:17:54.988Z,20.62
2017-09-27T08:18:35.534Z,20.69
2017-09-27T08:19:16.088Z,20.64
2017-09-27T08:19:56.653Z,20.73
2017-09-27T08:20:37.146Z,20.84
2017-09-27T08:21:17.697Z,20.88
2017-09-27T08:21:58.217Z,20.87
2017-09-27T08:22:38.765Z,20.85
2017-09-27T08:23:19.313Z,20.95
2017-09-27T08:23:59.877Z,20.99
2017-09-27T08:24:40.384Z,20.98
2017-09-27T08:25:20.901Z,21.04
2017-09-27T08:26:01.457Z,20.95
2017-09-27T08:26:42.052Z,20.97
2017-09-27T08:27:22.728Z,20.97
2017-09-27T08:28:03.269Z,20.99
2017-09-27T08:28:44.090Z,21.04
2017-09-27T08:29:24.650Z,21.07
2017-09-27T08:30:05.237Z,21.07
2017-09-27T08:30:46.127Z,20.94
2017-09-27T08:31:26.434Z,20.95
2017-09-27T08:32:06.949Z,20.98
2017-09-27T08:32:47.457Z,21.04
2017-09-27T08:33:28.023Z,21.03
2017-09-27T08:34:08.621Z,20.95
2017-09-27T08:34:49.114Z,20.85
2017-09-27T08:35:29.706Z,20.85
2017-09-27T08:36:10.242Z,20.82
2017-09-27T08:36:50.711Z,20.67
2017-09-27T08:37:31.328Z,20.82
2017-09-27T08:38:11.924Z,20.84
2017-09-27T08:38:52.469Z,20.79
2017-09-27T08:39:33.039Z,20.88
2017-09-27T08:40:13.553Z,20.91
2017-09-27T08:40:54.214Z,20.91
2017-09-27T08:41:34.893Z,20.95
2017-09-27T08:42:15.464Z,20.98
2017-09-27T08:42:56.069Z,20.98
2017-09-27T08:43:36.699Z,20.85
2017-09-27T08:44:18.143Z,21.01
2017-09-27T08:44:58.806Z,21.07
2017-09-27T08:45:39.362Z,21.19
2017-09-27T08:46:19.882Z,21.16
2017-09-27T08:47:00.479Z,21.16
2017-09-27T08:47:41.019Z,21.14
2017-09-27T08:48:21.566Z,21.13
2017-09-27T08:49:02.088Z,21.19
2017-09-27T08:49:42.653Z,21.19
2017-09-27T08:50:23.172Z,21.19
2017-09-27T08:51:03.781Z,21.1